sensor_id;sensor_type;location;lat;lon;timestamp;temperature;humidity
23231;DHT22;11784;49.818;8.632;2022-08-11T00:00:12;24.10;54.50
23231;DHT22;11784;49.818;8.632;2022-08-11T00:02:41;24.10;54.60
23231;DHT22;11784;49.818;8.632;2022-08-11T00:05:10;24.10;53.40
23231;DHT22;11784;49.818;8.632;2022-08-11T00:07:48;24.10;52.50
23231;DHT22;11784;49.818;8.632;2022-08-11T00:10:17;24.10;53.20
23231;DHT22;11784;49.818;8.632;2022-08-11T00:12:49;24.10;51.20
23231;DHT22;11784;49.818;8.632;2022-08-11T00:15:15;24.00;51.40
23231;DHT22;11784;49.818;8.632;2022-08-11T00:17:42;24.00;53.40
23231;DHT22;11784;49.818;8.632;2022-08-11T00:20:10;24.10;51.50
23231;DHT22;11784;49.818;8.632;2022-08-11T00:22:38;24.00;50.60
23231;DHT22;11784;49.818;8.632;2022-08-11T00:25:17;24.00;51.10
23231;DHT22;11784;49.818;8.632;2022-08-11T00:27:43;24.00;52.00
23231;DHT22;11784;49.818;8.632;2022-08-11T00:30:11;24.00;51.40
23231;DHT22;11784;49.818;8.632;2022-08-11T00:32:38;24.00;51.10
23231;DHT22;11784;49.818;8.632;2022-08-11T00:35:09;24.00;51.00
23231;DHT22;11784;49.818;8.632;2022-08-11T00:37:37;24.00;50.10
23231;DHT22;11784;49.818;8.632;2022-08-11T00:40:04;24.00;50.30
23231;DHT22;11784;49.818;8.632;2022-08-11T00:45:31;24.00;49.50
23231;DHT22;11784;49.818;8.632;2022-08-11T00:48:06;23.90;50.50
23231;DHT22;11784;49.818;8.632;2022-08-11T00:50:48;23.90;50.20
23231;DHT22;11784;49.818;8.632;2022-08-11T00:53:45;23.90;48.70
23231;DHT22;11784;49.818;8.632;2022-08-11T00:56:27;23.90;49.70
23231;DHT22;11784;49.818;8.632;2022-08-11T01:02:05;23.80;50.50
23231;DHT22;11784;49.818;8.632;2022-08-11T01:08:06;23.80;49.60
23231;DHT22;11784;49.818;8.632;2022-08-11T01:13:38;23.80;48.80
23231;DHT22;11784;49.818;8.632;2022-08-11T01:22:21;23.70;48.50
23231;DHT22;11784;49.818;8.632;2022-08-11T01:31:07;23.70;47.80
23231;DHT22;11784;49.818;8.632;2022-08-11T01:39:55;23.60;48.10
23231;DHT22;11784;49.818;8.632;2022-08-11T01:46:10;23.60;47.90
23231;DHT22;11784;49.818;8.632;2022-08-11T01:49:02;23.50;48.10
23231;DHT22;11784;49.818;8.632;2022-08-11T01:54:42;23.50;47.80
23231;DHT22;11784;49.818;8.632;2022-08-11T01:59:53;23.50;48.00
23231;DHT22;11784;49.818;8.632;2022-08-11T02:05:26;23.50;48.70
23231;DHT22;11784;49.818;8.632;2022-08-11T02:10:53;23.50;47.80
23231;DHT22;11784;49.818;8.632;2022-08-11T02:13:52;23.50;47.60
23231;DHT22;11784;49.818;8.632;2022-08-11T02:18:53;23.40;48.70
23231;DHT22;11784;49.818;8.632;2022-08-11T02:21:45;23.40;48.20
23231;DHT22;11784;49.818;8.632;2022-08-11T02:24:40;23.40;48.10
23231;DHT22;11784;49.818;8.632;2022-08-11T02:27:17;23.40;48.80
23231;DHT22;11784;49.818;8.632;2022-08-11T02:29:56;23.40;48.20
23231;DHT22;11784;49.818;8.632;2022-08-11T02:32:36;23.40;47.70
23231;DHT22;11784;49.818;8.632;2022-08-11T02:35:45;23.40;48.10
23231;DHT22;11784;49.818;8.632;2022-08-11T02:38:33;23.30;47.80
23231;DHT22;11784;49.818;8.632;2022-08-11T02:55:50;23.20;49.00
23231;DHT22;11784;49.818;8.632;2022-08-11T02:58:35;23.20;48.40
23231;DHT22;11784;49.818;8.632;2022-08-11T03:01:27;23.20;48.60
23231;DHT22;11784;49.818;8.632;2022-08-11T03:04:20;23.20;49.60
23231;DHT22;11784;49.818;8.632;2022-08-11T03:06:52;23.20;49.90
23231;DHT22;11784;49.818;8.632;2022-08-11T03:09:53;23.20;49.80
23231;DHT22;11784;49.818;8.632;2022-08-11T03:12:34;23.20;51.00
23231;DHT22;11784;49.818;8.632;2022-08-11T03:15:26;23.10;50.80
23231;DHT22;11784;49.818;8.632;2022-08-11T03:18:28;23.10;50.10
23231;DHT22;11784;49.818;8.632;2022-08-11T03:21:20;23.00;50.50
23231;DHT22;11784;49.818;8.632;2022-08-11T03:24:10;23.00;50.40
23231;DHT22;11784;49.818;8.632;2022-08-11T03:27:11;23.00;50.00
23231;DHT22;11784;49.818;8.632;2022-08-11T03:30:04;23.00;51.50
23231;DHT22;11784;49.818;8.632;2022-08-11T03:32:40;23.00;50.40
23231;DHT22;11784;49.818;8.632;2022-08-11T03:35:10;22.90;50.20
23231;DHT22;11784;49.818;8.632;2022-08-11T03:38:01;22.90;51.30
23231;DHT22;11784;49.818;8.632;2022-08-11T03:40:36;22.90;51.00
23231;DHT22;11784;49.818;8.632;2022-08-11T03:43:53;22.90;50.10
23231;DHT22;11784;49.818;8.632;2022-08-11T03:46:41;22.90;51.40
23231;DHT22;11784;49.818;8.632;2022-08-11T03:52:50;22.80;49.80
23231;DHT22;11784;49.818;8.632;2022-08-11T03:58:21;22.80;49.70
23231;DHT22;11784;49.818;8.632;2022-08-11T04:01:08;22.80;49.60
23231;DHT22;11784;49.818;8.632;2022-08-11T04:09:38;22.80;48.70
23231;DHT22;11784;49.818;8.632;2022-08-11T04:18:02;22.80;48.60
23231;DHT22;11784;49.818;8.632;2022-08-11T04:41:19;22.90;48.40
23231;DHT22;11784;49.818;8.632;2022-08-11T04:44:06;22.90;48.40
23231;DHT22;11784;49.818;8.632;2022-08-11T04:46:52;22.90;47.50
23231;DHT22;11784;49.818;8.632;2022-08-11T04:55:41;22.90;47.90
23231;DHT22;11784;49.818;8.632;2022-08-11T05:12:47;22.90;48.40
23231;DHT22;11784;49.818;8.632;2022-08-11T05:15:18;22.90;48.10
23231;DHT22;11784;49.818;8.632;2022-08-11T05:18:12;22.90;48.70
23231;DHT22;11784;49.818;8.632;2022-08-11T05:21:06;23.00;48.50
23231;DHT22;11784;49.818;8.632;2022-08-11T05:24:19;23.00;48.30
23231;DHT22;11784;49.818;8.632;2022-08-11T05:27:02;23.00;48.70
23231;DHT22;11784;49.818;8.632;2022-08-11T05:30:01;23.00;48.30
23231;DHT22;11784;49.818;8.632;2022-08-11T05:32:58;23.00;48.50
23231;DHT22;11784;49.818;8.632;2022-08-11T05:35:44;23.00;48.10
23231;DHT22;11784;49.818;8.632;2022-08-11T05:38:22;23.00;47.50
23231;DHT22;11784;49.818;8.632;2022-08-11T05:41:10;23.00;48.00
23231;DHT22;11784;49.818;8.632;2022-08-11T05:43:57;23.00;48.10
23231;DHT22;11784;49.818;8.632;2022-08-11T05:46:43;23.00;48.20
23231;DHT22;11784;49.818;8.632;2022-08-11T05:49:31;23.10;48.10
23231;DHT22;11784;49.818;8.632;2022-08-11T05:52:20;23.10;48.40
23231;DHT22;11784;49.818;8.632;2022-08-11T05:55:06;23.10;48.50
23231;DHT22;11784;49.818;8.632;2022-08-11T05:58:02;23.10;48.40
23231;DHT22;11784;49.818;8.632;2022-08-11T06:00:28;23.20;48.10
23231;DHT22;11784;49.818;8.632;2022-08-11T06:02:57;23.20;48.20
23231;DHT22;11784;49.818;8.632;2022-08-11T06:05:35;23.30;47.90
23231;DHT22;11784;49.818;8.632;2022-08-11T06:08:03;23.30;48.00
23231;DHT22;11784;49.818;8.632;2022-08-11T06:10:34;23.30;48.20
23231;DHT22;11784;49.818;8.632;2022-08-11T06:13:02;23.30;47.70
23231;DHT22;11784;49.818;8.632;2022-08-11T06:15:30;23.40;47.80
23231;DHT22;11784;49.818;8.632;2022-08-11T06:17:58;23.40;47.50
23231;DHT22;11784;49.818;8.632;2022-08-11T06:20:25;23.40;47.20
23231;DHT22;11784;49.818;8.632;2022-08-11T06:23:01;23.50;47.50
23231;DHT22;11784;49.818;8.632;2022-08-11T06:25:32;23.50;48.00
23231;DHT22;11784;49.818;8.632;2022-08-11T06:28:01;23.60;47.60
23231;DHT22;11784;49.818;8.632;2022-08-11T06:30:39;23.60;47.50
23231;DHT22;11784;49.818;8.632;2022-08-11T06:33:17;23.60;47.60
23231;DHT22;11784;49.818;8.632;2022-08-11T06:41:03;23.80;46.80
23231;DHT22;11784;49.818;8.632;2022-08-11T06:43:59;23.80;47.00
23231;DHT22;11784;49.818;8.632;2022-08-11T06:46:31;23.90;47.30
23231;DHT22;11784;49.818;8.632;2022-08-11T06:49:00;23.90;46.90
23231;DHT22;11784;49.818;8.632;2022-08-11T06:51:27;24.00;46.70
23231;DHT22;11784;49.818;8.632;2022-08-11T06:53:55;24.00;47.00
23231;DHT22;11784;49.818;8.632;2022-08-11T06:56:27;24.10;46.80
23231;DHT22;11784;49.818;8.632;2022-08-11T06:59:12;24.10;46.60
23231;DHT22;11784;49.818;8.632;2022-08-11T07:02:17;24.20;46.50
23231;DHT22;11784;49.818;8.632;2022-08-11T07:05:06;24.20;46.60
23231;DHT22;11784;49.818;8.632;2022-08-11T07:07:41;24.20;46.50
23231;DHT22;11784;49.818;8.632;2022-08-11T07:10:59;24.30;46.40
23231;DHT22;11784;49.818;8.632;2022-08-11T07:13:53;24.40;46.40
23231;DHT22;11784;49.818;8.632;2022-08-11T07:16:41;24.40;46.80
23231;DHT22;11784;49.818;8.632;2022-08-11T07:19:08;24.40;46.30
23231;DHT22;11784;49.818;8.632;2022-08-11T07:21:55;24.50;46.70
23231;DHT22;11784;49.818;8.632;2022-08-11T07:24:54;24.50;46.70
23231;DHT22;11784;49.818;8.632;2022-08-11T07:28:03;24.60;45.90
23231;DHT22;11784;49.818;8.632;2022-08-11T07:30:48;24.60;46.50
23231;DHT22;11784;49.818;8.632;2022-08-11T07:33:26;24.70;45.70
23231;DHT22;11784;49.818;8.632;2022-08-11T07:35:56;24.70;46.10
23231;DHT22;11784;49.818;8.632;2022-08-11T07:38:26;24.80;46.00
23231;DHT22;11784;49.818;8.632;2022-08-11T07:41:19;24.90;46.00
23231;DHT22;11784;49.818;8.632;2022-08-11T07:43:49;24.90;46.20
23231;DHT22;11784;49.818;8.632;2022-08-11T07:46:16;25.00;45.60
23231;DHT22;11784;49.818;8.632;2022-08-11T07:49:03;25.00;46.00
23231;DHT22;11784;49.818;8.632;2022-08-11T07:51:49;25.10;46.00
23231;DHT22;11784;49.818;8.632;2022-08-11T07:54:34;25.20;46.10
23231;DHT22;11784;49.818;8.632;2022-08-11T07:57:02;25.20;46.10
23231;DHT22;11784;49.818;8.632;2022-08-11T07:59:48;25.30;45.90
23231;DHT22;11784;49.818;8.632;2022-08-11T08:02:32;25.40;46.10
23231;DHT22;11784;49.818;8.632;2022-08-11T08:05:17;25.40;45.60
23231;DHT22;11784;49.818;8.632;2022-08-11T08:08:02;25.40;45.50
23231;DHT22;11784;49.818;8.632;2022-08-11T08:10:47;25.50;45.60
23231;DHT22;11784;49.818;8.632;2022-08-11T08:13:32;25.50;45.50
23231;DHT22;11784;49.818;8.632;2022-08-11T08:16:18;25.60;45.60
23231;DHT22;11784;49.818;8.632;2022-08-11T08:19:03;25.60;45.50
23231;DHT22;11784;49.818;8.632;2022-08-11T08:21:29;25.70;45.30
23231;DHT22;11784;49.818;8.632;2022-08-11T08:23:57;25.70;45.00
23231;DHT22;11784;49.818;8.632;2022-08-11T08:26:23;25.80;45.80
23231;DHT22;11784;49.818;8.632;2022-08-11T08:29:08;25.90;45.20
23231;DHT22;11784;49.818;8.632;2022-08-11T08:31:54;25.90;44.80
23231;DHT22;11784;49.818;8.632;2022-08-11T08:34:21;26.00;45.40
23231;DHT22;11784;49.818;8.632;2022-08-11T08:36:49;26.00;45.20
23231;DHT22;11784;49.818;8.632;2022-08-11T08:39:20;26.10;44.80
23231;DHT22;11784;49.818;8.632;2022-08-11T08:41:48;26.10;44.80
23231;DHT22;11784;49.818;8.632;2022-08-11T08:44:17;26.20;44.50
23231;DHT22;11784;49.818;8.632;2022-08-11T08:46:48;26.20;44.00
23231;DHT22;11784;49.818;8.632;2022-08-11T08:49:18;26.30;44.00
23231;DHT22;11784;49.818;8.632;2022-08-11T08:51:45;26.30;43.90
23231;DHT22;11784;49.818;8.632;2022-08-11T08:54:19;26.40;45.10
23231;DHT22;11784;49.818;8.632;2022-08-11T08:56:48;26.40;42.90
23231;DHT22;11784;49.818;8.632;2022-08-11T08:59:15;26.40;44.00
23231;DHT22;11784;49.818;8.632;2022-08-11T09:02:00;26.50;43.90
23231;DHT22;11784;49.818;8.632;2022-08-11T09:04:27;26.50;42.40
23231;DHT22;11784;49.818;8.632;2022-08-11T09:06:56;26.60;42.30
23231;DHT22;11784;49.818;8.632;2022-08-11T09:09:22;26.60;43.60
23231;DHT22;11784;49.818;8.632;2022-08-11T09:11:49;26.60;43.00
23231;DHT22;11784;49.818;8.632;2022-08-11T09:14:16;26.80;43.20
23231;DHT22;11784;49.818;8.632;2022-08-11T09:16:43;26.80;43.00
23231;DHT22;11784;49.818;8.632;2022-08-11T09:19:09;26.80;42.70
23231;DHT22;11784;49.818;8.632;2022-08-11T09:21:41;26.80;42.50
23231;DHT22;11784;49.818;8.632;2022-08-11T09:24:07;26.90;42.40
23231;DHT22;11784;49.818;8.632;2022-08-11T09:26:51;27.00;42.80
23231;DHT22;11784;49.818;8.632;2022-08-11T09:29:25;27.10;42.50
23231;DHT22;11784;49.818;8.632;2022-08-11T09:31:51;27.10;41.50
23231;DHT22;11784;49.818;8.632;2022-08-11T09:34:18;27.20;41.80
23231;DHT22;11784;49.818;8.632;2022-08-11T09:36:44;27.20;41.60
23231;DHT22;11784;49.818;8.632;2022-08-11T09:39:30;27.30;40.80
23231;DHT22;11784;49.818;8.632;2022-08-11T09:42:15;27.30;39.90
23231;DHT22;11784;49.818;8.632;2022-08-11T09:44:41;27.40;39.80
23231;DHT22;11784;49.818;8.632;2022-08-11T09:47:29;27.50;39.60
23231;DHT22;11784;49.818;8.632;2022-08-11T09:49:58;27.40;39.40
23231;DHT22;11784;49.818;8.632;2022-08-11T09:52:25;27.50;39.60
23231;DHT22;11784;49.818;8.632;2022-08-11T09:54:52;27.50;39.20
23231;DHT22;11784;49.818;8.632;2022-08-11T09:57:20;27.60;38.60
23231;DHT22;11784;49.818;8.632;2022-08-11T10:00:07;27.60;38.70
23231;DHT22;11784;49.818;8.632;2022-08-11T10:02:33;27.70;37.80
23231;DHT22;11784;49.818;8.632;2022-08-11T10:05:06;27.70;38.00
23231;DHT22;11784;49.818;8.632;2022-08-11T10:07:52;27.60;37.40
23231;DHT22;11784;49.818;8.632;2022-08-11T10:10:18;27.60;36.70
23231;DHT22;11784;49.818;8.632;2022-08-11T10:12:58;27.70;37.40
23231;DHT22;11784;49.818;8.632;2022-08-11T10:15:25;27.70;36.50
23231;DHT22;11784;49.818;8.632;2022-08-11T10:18:10;27.70;36.30
23231;DHT22;11784;49.818;8.632;2022-08-11T10:21:27;27.70;36.60
23231;DHT22;11784;49.818;8.632;2022-08-11T10:23:56;27.80;37.40
23231;DHT22;11784;49.818;8.632;2022-08-11T10:26:42;27.70;37.30
23231;DHT22;11784;49.818;8.632;2022-08-11T10:29:23;27.80;37.50
23231;DHT22;11784;49.818;8.632;2022-08-11T10:32:08;27.80;37.60
23231;DHT22;11784;49.818;8.632;2022-08-11T10:34:54;27.90;38.10
23231;DHT22;11784;49.818;8.632;2022-08-11T10:37:22;27.90;37.50
23231;DHT22;11784;49.818;8.632;2022-08-11T10:39:49;28.00;36.70
23231;DHT22;11784;49.818;8.632;2022-08-11T10:42:16;28.00;36.20
23231;DHT22;11784;49.818;8.632;2022-08-11T10:45:03;28.00;36.30
23231;DHT22;11784;49.818;8.632;2022-08-11T10:47:54;28.00;36.00
23231;DHT22;11784;49.818;8.632;2022-08-11T10:50:20;28.10;36.70
23231;DHT22;11784;49.818;8.632;2022-08-11T10:53:06;28.10;35.80
23231;DHT22;11784;49.818;8.632;2022-08-11T10:55:50;28.10;36.80
23231;DHT22;11784;49.818;8.632;2022-08-11T10:58:36;28.20;37.70
23231;DHT22;11784;49.818;8.632;2022-08-11T11:01:23;28.20;36.40
23231;DHT22;11784;49.818;8.632;2022-08-11T11:04:04;28.20;37.00
23231;DHT22;11784;49.818;8.632;2022-08-11T11:09:05;28.30;35.50
23231;DHT22;11784;49.818;8.632;2022-08-11T11:11:36;28.30;35.70
23231;DHT22;11784;49.818;8.632;2022-08-11T11:14:21;28.30;37.10
23231;DHT22;11784;49.818;8.632;2022-08-11T11:17:10;28.30;36.40
23231;DHT22;11784;49.818;8.632;2022-08-11T11:19:57;28.40;36.60
23231;DHT22;11784;49.818;8.632;2022-08-11T11:22:26;28.40;37.50
23231;DHT22;11784;49.818;8.632;2022-08-11T11:28:37;28.50;36.50
23231;DHT22;11784;49.818;8.632;2022-08-11T11:32:05;28.60;36.20
23231;DHT22;11784;49.818;8.632;2022-08-11T11:34:23;28.60;36.60
23231;DHT22;11784;49.818;8.632;2022-08-11T11:36:57;28.70;35.60
23231;DHT22;11784;49.818;8.632;2022-08-11T11:39:27;28.70;35.90
23231;DHT22;11784;49.818;8.632;2022-08-11T11:41:56;28.80;38.60
23231;DHT22;11784;49.818;8.632;2022-08-11T11:44:24;28.80;35.40
23231;DHT22;11784;49.818;8.632;2022-08-11T11:46:50;28.90;35.10
23231;DHT22;11784;49.818;8.632;2022-08-11T11:49:18;28.90;34.70
23231;DHT22;11784;49.818;8.632;2022-08-11T11:51:49;28.90;35.10
23231;DHT22;11784;49.818;8.632;2022-08-11T11:54:21;29.00;35.40
23231;DHT22;11784;49.818;8.632;2022-08-11T11:56:48;29.00;35.50
23231;DHT22;11784;49.818;8.632;2022-08-11T11:59:20;29.00;35.10
23231;DHT22;11784;49.818;8.632;2022-08-11T12:02:07;29.00;35.00
23231;DHT22;11784;49.818;8.632;2022-08-11T12:04:35;29.20;36.60
23231;DHT22;11784;49.818;8.632;2022-08-11T12:07:02;29.10;34.40
23231;DHT22;11784;49.818;8.632;2022-08-11T12:09:48;29.20;35.10
23231;DHT22;11784;49.818;8.632;2022-08-11T12:12:14;29.20;34.30
23231;DHT22;11784;49.818;8.632;2022-08-11T12:14:58;29.20;34.10
23231;DHT22;11784;49.818;8.632;2022-08-11T12:17:24;29.30;34.10
23231;DHT22;11784;49.818;8.632;2022-08-11T12:19:51;29.20;33.80
23231;DHT22;11784;49.818;8.632;2022-08-11T12:22:17;29.20;32.20
23231;DHT22;11784;49.818;8.632;2022-08-11T12:25:02;29.30;34.70
23231;DHT22;11784;49.818;8.632;2022-08-11T12:27:46;29.30;34.10
23231;DHT22;11784;49.818;8.632;2022-08-11T12:30:12;29.30;34.60
23231;DHT22;11784;49.818;8.632;2022-08-11T12:32:39;29.40;35.90
23231;DHT22;11784;49.818;8.632;2022-08-11T12:35:06;29.40;34.20
23231;DHT22;11784;49.818;8.632;2022-08-11T12:37:44;29.40;34.20
23231;DHT22;11784;49.818;8.632;2022-08-11T12:40:13;29.50;34.20
23231;DHT22;11784;49.818;8.632;2022-08-11T12:43:01;29.60;34.10
23231;DHT22;11784;49.818;8.632;2022-08-11T12:45:46;29.60;35.10
23231;DHT22;11784;49.818;8.632;2022-08-11T12:48:20;29.60;34.90
23231;DHT22;11784;49.818;8.632;2022-08-11T12:51:24;29.60;33.40
23231;DHT22;11784;49.818;8.632;2022-08-11T12:57:13;29.80;33.40
23231;DHT22;11784;49.818;8.632;2022-08-11T13:00:03;29.80;34.50
23231;DHT22;11784;49.818;8.632;2022-08-11T13:02:50;29.90;33.60
23231;DHT22;11784;49.818;8.632;2022-08-11T13:05:34;30.00;32.70
23231;DHT22;11784;49.818;8.632;2022-08-11T13:08:02;30.10;32.70
23231;DHT22;11784;49.818;8.632;2022-08-11T13:10:29;30.10;32.40
23231;DHT22;11784;49.818;8.632;2022-08-11T13:13:16;30.20;32.80
23231;DHT22;11784;49.818;8.632;2022-08-11T13:15:42;30.40;34.50
23231;DHT22;11784;49.818;8.632;2022-08-11T13:18:17;30.40;33.10
23231;DHT22;11784;49.818;8.632;2022-08-11T13:20:53;30.60;33.30
23231;DHT22;11784;49.818;8.632;2022-08-11T13:23:19;30.70;31.00
23231;DHT22;11784;49.818;8.632;2022-08-11T13:25:46;30.80;30.30
23231;DHT22;11784;49.818;8.632;2022-08-11T13:28:13;30.90;29.70
23231;DHT22;11784;49.818;8.632;2022-08-11T13:30:41;31.10;31.50
23231;DHT22;11784;49.818;8.632;2022-08-11T13:33:26;31.30;31.10
23231;DHT22;11784;49.818;8.632;2022-08-11T13:35:53;31.30;32.20
23231;DHT22;11784;49.818;8.632;2022-08-11T13:38:21;31.50;30.10
23231;DHT22;11784;49.818;8.632;2022-08-11T13:40:51;31.60;31.50
23231;DHT22;11784;49.818;8.632;2022-08-11T13:43:19;31.70;30.00
23231;DHT22;11784;49.818;8.632;2022-08-11T13:45:46;31.90;29.80
23231;DHT22;11784;49.818;8.632;2022-08-11T13:48:13;32.00;31.00
23231;DHT22;11784;49.818;8.632;2022-08-11T13:50:40;32.30;30.40
23231;DHT22;11784;49.818;8.632;2022-08-11T13:53:26;33.00;29.30
23231;DHT22;11784;49.818;8.632;2022-08-11T13:55:53;34.20;28.40
23231;DHT22;11784;49.818;8.632;2022-08-11T13:58:22;35.50;26.70
23231;DHT22;11784;49.818;8.632;2022-08-11T14:00:50;36.90;27.50
23231;DHT22;11784;49.818;8.632;2022-08-11T14:03:20;38.00;24.60
23231;DHT22;11784;49.818;8.632;2022-08-11T14:05:48;38.90;23.90
23231;DHT22;11784;49.818;8.632;2022-08-11T14:08:16;39.60;23.10
23231;DHT22;11784;49.818;8.632;2022-08-11T14:10:44;40.30;22.40
23231;DHT22;11784;49.818;8.632;2022-08-11T14:13:15;41.10;23.00
23231;DHT22;11784;49.818;8.632;2022-08-11T14:16:03;41.70;22.80
23231;DHT22;11784;49.818;8.632;2022-08-11T14:18:32;42.20;21.90
23231;DHT22;11784;49.818;8.632;2022-08-11T14:21:00;42.40;21.20
23231;DHT22;11784;49.818;8.632;2022-08-11T14:23:47;42.30;20.30
23231;DHT22;11784;49.818;8.632;2022-08-11T14:26:16;41.90;21.30
23231;DHT22;11784;49.818;8.632;2022-08-11T14:28:48;41.30;20.80
23231;DHT22;11784;49.818;8.632;2022-08-11T14:31:15;40.70;21.70
23231;DHT22;11784;49.818;8.632;2022-08-11T14:33:43;40.00;21.20
23231;DHT22;11784;49.818;8.632;2022-08-11T14:36:10;39.40;21.30
23231;DHT22;11784;49.818;8.632;2022-08-11T14:38:37;38.70;22.70
23231;DHT22;11784;49.818;8.632;2022-08-11T14:41:04;38.10;22.60
23231;DHT22;11784;49.818;8.632;2022-08-11T14:43:49;37.50;23.10
23231;DHT22;11784;49.818;8.632;2022-08-11T14:46:33;36.90;23.80
23231;DHT22;11784;49.818;8.632;2022-08-11T14:49:18;36.40;25.70
23231;DHT22;11784;49.818;8.632;2022-08-11T14:51:45;35.90;25.20
23231;DHT22;11784;49.818;8.632;2022-08-11T14:54:13;35.50;25.10
23231;DHT22;11784;49.818;8.632;2022-08-11T14:56:57;35.10;25.00
23231;DHT22;11784;49.818;8.632;2022-08-11T14:59:24;34.80;25.10
23231;DHT22;11784;49.818;8.632;2022-08-11T15:01:50;34.50;26.70
23231;DHT22;11784;49.818;8.632;2022-08-11T15:04:34;34.20;26.20
23231;DHT22;11784;49.818;8.632;2022-08-11T15:07:00;34.00;27.50
23231;DHT22;11784;49.818;8.632;2022-08-11T15:09:26;33.80;26.00
23231;DHT22;11784;49.818;8.632;2022-08-11T15:11:52;33.70;26.90
23231;DHT22;11784;49.818;8.632;2022-08-11T15:14:34;33.50;27.20
23231;DHT22;11784;49.818;8.632;2022-08-11T15:17:20;33.40;27.00
23231;DHT22;11784;49.818;8.632;2022-08-11T15:19:47;33.20;26.60
23231;DHT22;11784;49.818;8.632;2022-08-11T15:22:32;33.10;26.70
23231;DHT22;11784;49.818;8.632;2022-08-11T15:25:17;33.00;27.50
23231;DHT22;11784;49.818;8.632;2022-08-11T15:27:46;32.90;27.40
23231;DHT22;11784;49.818;8.632;2022-08-11T15:30:31;32.90;28.00
23231;DHT22;11784;49.818;8.632;2022-08-11T15:33:18;32.80;27.90
23231;DHT22;11784;49.818;8.632;2022-08-11T15:36:05;32.80;27.20
23231;DHT22;11784;49.818;8.632;2022-08-11T15:38:56;32.80;28.50
23231;DHT22;11784;49.818;8.632;2022-08-11T15:41:28;32.70;27.70
23231;DHT22;11784;49.818;8.632;2022-08-11T15:44:14;32.70;27.70
23231;DHT22;11784;49.818;8.632;2022-08-11T15:47:01;32.70;28.00
23231;DHT22;11784;49.818;8.632;2022-08-11T15:49:36;32.70;28.10
23231;DHT22;11784;49.818;8.632;2022-08-11T15:52:09;32.70;28.20
23231;DHT22;11784;49.818;8.632;2022-08-11T15:54:39;32.70;27.20
23231;DHT22;11784;49.818;8.632;2022-08-11T15:57:07;32.60;26.30
23231;DHT22;11784;49.818;8.632;2022-08-11T15:59:36;32.70;26.00
23231;DHT22;11784;49.818;8.632;2022-08-11T16:02:22;32.60;26.70
23231;DHT22;11784;49.818;8.632;2022-08-11T16:04:53;32.60;29.30
23231;DHT22;11784;49.818;8.632;2022-08-11T16:07:21;32.70;28.10
23231;DHT22;11784;49.818;8.632;2022-08-11T16:09:58;32.70;27.00
23231;DHT22;11784;49.818;8.632;2022-08-11T16:12:31;32.70;27.10
23231;DHT22;11784;49.818;8.632;2022-08-11T16:15:02;32.70;26.00
23231;DHT22;11784;49.818;8.632;2022-08-11T16:17:56;32.80;27.50
23231;DHT22;11784;49.818;8.632;2022-08-11T16:20:25;32.80;27.10
23231;DHT22;11784;49.818;8.632;2022-08-11T16:22:53;32.90;27.10
23231;DHT22;11784;49.818;8.632;2022-08-11T16:25:23;32.90;26.80
23231;DHT22;11784;49.818;8.632;2022-08-11T16:27:51;32.90;26.70
23231;DHT22;11784;49.818;8.632;2022-08-11T16:30:17;33.00;26.30
23231;DHT22;11784;49.818;8.632;2022-08-11T16:32:45;33.00;26.80
23231;DHT22;11784;49.818;8.632;2022-08-11T16:35:16;33.10;28.00
23231;DHT22;11784;49.818;8.632;2022-08-11T16:38:03;33.10;27.60
23231;DHT22;11784;49.818;8.632;2022-08-11T16:40:51;33.20;27.90
23231;DHT22;11784;49.818;8.632;2022-08-11T16:43:18;33.20;29.10
23231;DHT22;11784;49.818;8.632;2022-08-11T16:46:04;33.30;28.40
23231;DHT22;11784;49.818;8.632;2022-08-11T16:48:50;33.50;27.70
23231;DHT22;11784;49.818;8.632;2022-08-11T16:51:18;33.80;27.20
23231;DHT22;11784;49.818;8.632;2022-08-11T16:53:48;34.30;27.90
23231;DHT22;11784;49.818;8.632;2022-08-11T16:56:17;34.90;27.10
23231;DHT22;11784;49.818;8.632;2022-08-11T16:58:48;35.50;25.80
23231;DHT22;11784;49.818;8.632;2022-08-11T17:01:34;36.40;26.50
23231;DHT22;11784;49.818;8.632;2022-08-11T17:04:07;37.30;25.10
23231;DHT22;11784;49.818;8.632;2022-08-11T17:06:52;38.20;24.60
23231;DHT22;11784;49.818;8.632;2022-08-11T17:09:37;39.00;23.00
23231;DHT22;11784;49.818;8.632;2022-08-11T17:12:24;39.90;21.80
23231;DHT22;11784;49.818;8.632;2022-08-11T17:15:13;40.70;22.40
23231;DHT22;11784;49.818;8.632;2022-08-11T17:17:59;41.50;20.90
23231;DHT22;11784;49.818;8.632;2022-08-11T17:20:27;42.10;21.10
23231;DHT22;11784;49.818;8.632;2022-08-11T17:22:54;42.60;19.40
23231;DHT22;11784;49.818;8.632;2022-08-11T17:25:40;42.80;19.70
23231;DHT22;11784;49.818;8.632;2022-08-11T17:28:06;42.70;20.50
23231;DHT22;11784;49.818;8.632;2022-08-11T17:30:33;42.10;20.10
23231;DHT22;11784;49.818;8.632;2022-08-11T17:33:19;41.30;19.40
23231;DHT22;11784;49.818;8.632;2022-08-11T17:36:05;40.30;21.60
23231;DHT22;11784;49.818;8.632;2022-08-11T17:38:32;39.40;24.50
23231;DHT22;11784;49.818;8.632;2022-08-11T17:41:01;38.60;23.20
23231;DHT22;11784;49.818;8.632;2022-08-11T17:43:47;37.80;23.90
23231;DHT22;11784;49.818;8.632;2022-08-11T17:46:33;37.00;24.80
23231;DHT22;11784;49.818;8.632;2022-08-11T17:49:18;36.30;26.10
23231;DHT22;11784;49.818;8.632;2022-08-11T17:51:47;35.70;25.70
23231;DHT22;11784;49.818;8.632;2022-08-11T17:54:34;35.20;28.10
23231;DHT22;11784;49.818;8.632;2022-08-11T17:57:19;34.70;27.10
23231;DHT22;11784;49.818;8.632;2022-08-11T18:00:05;34.20;27.10
23231;DHT22;11784;49.818;8.632;2022-08-11T18:02:36;33.90;27.20
23231;DHT22;11784;49.818;8.632;2022-08-11T18:05:23;33.50;28.60
23231;DHT22;11784;49.818;8.632;2022-08-11T18:07:52;33.10;28.50
23231;DHT22;11784;49.818;8.632;2022-08-11T18:10:38;32.80;28.40
23231;DHT22;11784;49.818;8.632;2022-08-11T18:13:24;32.60;29.30
23231;DHT22;11784;49.818;8.632;2022-08-11T18:16:10;32.30;29.80
23231;DHT22;11784;49.818;8.632;2022-08-11T18:18:55;32.10;30.90
23231;DHT22;11784;49.818;8.632;2022-08-11T18:21:44;31.80;31.20
23231;DHT22;11784;49.818;8.632;2022-08-11T18:24:32;31.60;30.00
23231;DHT22;11784;49.818;8.632;2022-08-11T18:27:20;31.40;31.00
23231;DHT22;11784;49.818;8.632;2022-08-11T18:30:05;31.20;33.30
23231;DHT22;11784;49.818;8.632;2022-08-11T18:32:51;31.10;31.90
23231;DHT22;11784;49.818;8.632;2022-08-11T18:35:37;30.90;34.10
23231;DHT22;11784;49.818;8.632;2022-08-11T18:38:27;30.70;34.10
23231;DHT22;11784;49.818;8.632;2022-08-11T18:41:13;30.50;33.50
23231;DHT22;11784;49.818;8.632;2022-08-11T18:43:59;30.40;36.50
23231;DHT22;11784;49.818;8.632;2022-08-11T18:46:45;30.30;38.10
23231;DHT22;11784;49.818;8.632;2022-08-11T18:49:34;30.10;40.40
23231;DHT22;11784;49.818;8.632;2022-08-11T18:52:19;30.00;40.20